Terminal Aerodrome Forecast
Issued by NWS

Home | Current Version | Previous Version | Text Only | Print | Product List | Glossary On
Versions: 1 2 3 4 5 6 7 8 9 10 11 12 13 14 15 16 17 18 19 20 21
757
FTUS46 KLOX 250549
TAFLGB
TAF
KLGB 250549Z 2506/2606 VRB03KT P6SM SKC
     FM250900 VRB03KT 6SM BR OVC007
     FM251600 VRB03KT P6SM FEW010
     FM251900 18008KT P6SM SCT200
     FM252300 30008KT P6SM SCT200
     FM260400 VRB03KT P6SM SCT200=

USA.gov is the U.S. government's official web portal to all federal, state and local government web resources and services.